Terminal Aerodrome Forecast
Issued by NWS Newport/Morehead City, NC

Home | Current Version | Previous Version | Text Only | Print | Product List | Glossary Off
Versions: 1 2 3 4 5 6 7 8 9 10 11 12 13 14 15

000
FTUS42 KMHX 271741
TAFEWN
TAF
KEWN 271741Z 2718/2818 18012G20KT P6SM -RA VCTS BKN035CB
     FM280200 23010KT P6SM VCTS BKN030CB
     FM281000 28006KT P6SM BKN050=

USA.gov is the U.S. government's official web portal to all federal, state and local government web resources and services.